sensor_id;sensor_type;location;lat;lon;timestamp;P1;durP1;ratioP1;P2;durP2;ratioP2
4525;SDS011;2275;52.208;8.804;2022-08-04T00:01:30;12.30;;;4.77;;
4525;SDS011;2275;52.208;8.804;2022-08-04T00:04:01;14.80;;;4.50;;
4525;SDS011;2275;52.208;8.804;2022-08-04T00:06:33;15.23;;;4.73;;
4525;SDS011;2275;52.208;8.804;2022-08-04T00:09:01;11.80;;;4.33;;
4525;SDS011;2275;52.208;8.804;2022-08-04T00:11:28;12.80;;;4.17;;
4525;SDS011;2275;52.208;8.804;2022-08-04T00:13:57;12.97;;;4.30;;
4525;SDS011;2275;52.208;8.804;2022-08-04T00:16:21;10.77;;;4.13;;
4525;SDS011;2275;52.208;8.804;2022-08-04T00:18:52;10.17;;;4.17;;
4525;SDS011;2275;52.208;8.804;2022-08-04T00:21:18;8.97;;;3.70;;
4525;SDS011;2275;52.208;8.804;2022-08-04T00:23:44;12.93;;;4.07;;
4525;SDS011;2275;52.208;8.804;2022-08-04T00:26:12;13.80;;;4.97;;
4525;SDS011;2275;52.208;8.804;2022-08-04T00:28:39;13.60;;;4.80;;
4525;SDS011;2275;52.208;8.804;2022-08-04T00:31:08;12.63;;;4.50;;
4525;SDS011;2275;52.208;8.804;2022-08-04T00:33:36;11.33;;;3.73;;
4525;SDS011;2275;52.208;8.804;2022-08-04T00:36:04;17.00;;;4.00;;
4525;SDS011;2275;52.208;8.804;2022-08-04T00:38:31;15.83;;;4.30;;
4525;SDS011;2275;52.208;8.804;2022-08-04T00:41:03;11.07;;;4.47;;
4525;SDS011;2275;52.208;8.804;2022-08-04T00:43:51;12.83;;;4.57;;
4525;SDS011;2275;52.208;8.804;2022-08-04T00:49:53;11.03;;;4.57;;
4525;SDS011;2275;52.208;8.804;2022-08-04T00:54:41;14.73;;;4.13;;
4525;SDS011;2275;52.208;8.804;2022-08-04T00:57:16;12.23;;;4.03;;
4525;SDS011;2275;52.208;8.804;2022-08-04T01:02:24;14.63;;;4.67;;
4525;SDS011;2275;52.208;8.804;2022-08-04T01:05:30;15.03;;;4.23;;
4525;SDS011;2275;52.208;8.804;2022-08-04T01:07:48;11.40;;;3.60;;
4525;SDS011;2275;52.208;8.804;2022-08-04T01:10:22;9.80;;;4.63;;
4525;SDS011;2275;52.208;8.804;2022-08-04T01:13:10;16.67;;;4.57;;
4525;SDS011;2275;52.208;8.804;2022-08-04T01:15:44;11.57;;;4.73;;
4525;SDS011;2275;52.208;8.804;2022-08-04T01:18:11;10.27;;;4.00;;
4525;SDS011;2275;52.208;8.804;2022-08-04T01:21:01;12.03;;;4.00;;
4525;SDS011;2275;52.208;8.804;2022-08-04T01:23:34;11.83;;;4.10;;
4525;SDS011;2275;52.208;8.804;2022-08-04T01:26:16;23.30;;;4.50;;
4525;SDS011;2275;52.208;8.804;2022-08-04T01:31:29;17.07;;;4.10;;
4525;SDS011;2275;52.208;8.804;2022-08-04T01:33:55;13.07;;;3.87;;
4525;SDS011;2275;52.208;8.804;2022-08-04T01:36:23;8.70;;;4.10;;
4525;SDS011;2275;52.208;8.804;2022-08-04T01:38:51;9.73;;;4.03;;
4525;SDS011;2275;52.208;8.804;2022-08-04T01:41:18;19.30;;;4.97;;
4525;SDS011;2275;52.208;8.804;2022-08-04T01:43:46;11.00;;;4.43;;
4525;SDS011;2275;52.208;8.804;2022-08-04T01:46:14;15.67;;;4.30;;
4525;SDS011;2275;52.208;8.804;2022-08-04T01:48:44;13.97;;;4.63;;
4525;SDS011;2275;52.208;8.804;2022-08-04T01:51:11;13.90;;;4.30;;
4525;SDS011;2275;52.208;8.804;2022-08-04T01:53:41;11.70;;;4.23;;
4525;SDS011;2275;52.208;8.804;2022-08-04T01:56:08;13.00;;;4.70;;
4525;SDS011;2275;52.208;8.804;2022-08-04T01:58:36;8.07;;;4.60;;
4525;SDS011;2275;52.208;8.804;2022-08-04T02:01:05;16.10;;;4.60;;
4525;SDS011;2275;52.208;8.804;2022-08-04T02:03:33;11.80;;;4.13;;
4525;SDS011;2275;52.208;8.804;2022-08-04T02:06:06;11.33;;;4.50;;
4525;SDS011;2275;52.208;8.804;2022-08-04T02:08:38;11.37;;;4.70;;
4525;SDS011;2275;52.208;8.804;2022-08-04T02:11:12;9.83;;;4.20;;
4525;SDS011;2275;52.208;8.804;2022-08-04T02:13:51;10.50;;;4.70;;
4525;SDS011;2275;52.208;8.804;2022-08-04T02:16:38;11.13;;;4.87;;
4525;SDS011;2275;52.208;8.804;2022-08-04T02:19:07;8.53;;;4.53;;
4525;SDS011;2275;52.208;8.804;2022-08-04T02:21:31;9.83;;;4.40;;
4525;SDS011;2275;52.208;8.804;2022-08-04T02:24:02;14.07;;;4.63;;
4525;SDS011;2275;52.208;8.804;2022-08-04T02:26:28;12.17;;;4.00;;
4525;SDS011;2275;52.208;8.804;2022-08-04T02:29:31;17.00;;;5.07;;
4525;SDS011;2275;52.208;8.804;2022-08-04T02:31:46;13.20;;;3.93;;
4525;SDS011;2275;52.208;8.804;2022-08-04T02:34:15;12.00;;;4.60;;
4525;SDS011;2275;52.208;8.804;2022-08-04T02:36:45;10.60;;;4.30;;
4525;SDS011;2275;52.208;8.804;2022-08-04T02:39:13;13.13;;;4.53;;
4525;SDS011;2275;52.208;8.804;2022-08-04T02:41:41;10.00;;;3.83;;
4525;SDS011;2275;52.208;8.804;2022-08-04T02:44:08;11.97;;;3.87;;
4525;SDS011;2275;52.208;8.804;2022-08-04T02:46:37;9.50;;;3.93;;
4525;SDS011;2275;52.208;8.804;2022-08-04T02:49:05;9.63;;;4.50;;
4525;SDS011;2275;52.208;8.804;2022-08-04T02:51:33;7.23;;;3.90;;
4525;SDS011;2275;52.208;8.804;2022-08-04T02:54:02;11.93;;;3.90;;
4525;SDS011;2275;52.208;8.804;2022-08-04T02:56:31;8.47;;;3.43;;
4525;SDS011;2275;52.208;8.804;2022-08-04T02:59:00;11.50;;;3.80;;
4525;SDS011;2275;52.208;8.804;2022-08-04T03:01:30;8.57;;;4.40;;
4525;SDS011;2275;52.208;8.804;2022-08-04T03:04:34;12.90;;;4.50;;
4525;SDS011;2275;52.208;8.804;2022-08-04T03:07:11;10.20;;;4.10;;
4525;SDS011;2275;52.208;8.804;2022-08-04T03:10:13;9.90;;;3.90;;
4525;SDS011;2275;52.208;8.804;2022-08-04T03:18:35;10.00;;;4.03;;
4525;SDS011;2275;52.208;8.804;2022-08-04T03:21:18;13.37;;;4.77;;
4525;SDS011;2275;52.208;8.804;2022-08-04T03:25:02;11.83;;;4.80;;
4525;SDS011;2275;52.208;8.804;2022-08-04T03:26:53;8.03;;;4.00;;
4525;SDS011;2275;52.208;8.804;2022-08-04T03:34:58;14.30;;;4.37;;
4525;SDS011;2275;52.208;8.804;2022-08-04T03:37:44;11.37;;;4.83;;
4525;SDS011;2275;52.208;8.804;2022-08-04T03:40:31;9.20;;;3.80;;
4525;SDS011;2275;52.208;8.804;2022-08-04T03:45:52;11.57;;;4.17;;
4525;SDS011;2275;52.208;8.804;2022-08-04T03:48:32;12.47;;;4.43;;
4525;SDS011;2275;52.208;8.804;2022-08-04T03:53:57;12.37;;;5.20;;
4525;SDS011;2275;52.208;8.804;2022-08-04T03:56:42;12.47;;;3.87;;
4525;SDS011;2275;52.208;8.804;2022-08-04T04:04:23;14.97;;;5.37;;
4525;SDS011;2275;52.208;8.804;2022-08-04T04:06:58;13.47;;;4.67;;
4525;SDS011;2275;52.208;8.804;2022-08-04T04:09:46;12.63;;;5.10;;
4525;SDS011;2275;52.208;8.804;2022-08-04T04:14:58;11.33;;;5.03;;
4525;SDS011;2275;52.208;8.804;2022-08-04T04:28:16;13.23;;;4.07;;
4525;SDS011;2275;52.208;8.804;2022-08-04T04:31:01;10.37;;;5.37;;
4525;SDS011;2275;52.208;8.804;2022-08-04T04:33:36;9.17;;;4.23;;
4525;SDS011;2275;52.208;8.804;2022-08-04T04:36:09;10.20;;;4.80;;
4525;SDS011;2275;52.208;8.804;2022-08-04T04:38:41;10.00;;;4.80;;
4525;SDS011;2275;52.208;8.804;2022-08-04T04:41:14;11.03;;;4.13;;
4525;SDS011;2275;52.208;8.804;2022-08-04T04:49:13;13.70;;;4.40;;
4525;SDS011;2275;52.208;8.804;2022-08-04T04:51:59;8.87;;;3.90;;
4525;SDS011;2275;52.208;8.804;2022-08-04T04:57:16;14.60;;;4.40;;
4525;SDS011;2275;52.208;8.804;2022-08-04T04:59:48;9.10;;;4.60;;
4525;SDS011;2275;52.208;8.804;2022-08-04T05:02:33;16.70;;;4.70;;
4525;SDS011;2275;52.208;8.804;2022-08-04T05:05:06;10.07;;;4.30;;
4525;SDS011;2275;52.208;8.804;2022-08-04T05:07:47;11.30;;;4.30;;
4525;SDS011;2275;52.208;8.804;2022-08-04T05:10:34;9.70;;;4.33;;
4525;SDS011;2275;52.208;8.804;2022-08-04T05:16:06;12.33;;;4.30;;
4525;SDS011;2275;52.208;8.804;2022-08-04T05:18:34;10.10;;;4.10;;
4525;SDS011;2275;52.208;8.804;2022-08-04T05:23:44;15.87;;;4.20;;
4525;SDS011;2275;52.208;8.804;2022-08-04T05:26:11;13.07;;;4.40;;
4525;SDS011;2275;52.208;8.804;2022-08-04T05:28:40;8.87;;;4.17;;
4525;SDS011;2275;52.208;8.804;2022-08-04T05:31:12;8.47;;;4.00;;
4525;SDS011;2275;52.208;8.804;2022-08-04T05:34:12;7.90;;;3.87;;
4525;SDS011;2275;52.208;8.804;2022-08-04T05:36:25;12.53;;;4.00;;
4525;SDS011;2275;52.208;8.804;2022-08-04T05:38:56;9.53;;;3.83;;
4525;SDS011;2275;52.208;8.804;2022-08-04T05:41:25;10.40;;;4.03;;
4525;SDS011;2275;52.208;8.804;2022-08-04T05:43:52;7.70;;;4.00;;
4525;SDS011;2275;52.208;8.804;2022-08-04T05:46:19;8.27;;;4.83;;
4525;SDS011;2275;52.208;8.804;2022-08-04T05:48:49;8.60;;;4.70;;
4525;SDS011;2275;52.208;8.804;2022-08-04T05:54:02;10.70;;;3.90;;
4525;SDS011;2275;52.208;8.804;2022-08-04T05:56:29;10.97;;;4.30;;
4525;SDS011;2275;52.208;8.804;2022-08-04T05:58:56;11.83;;;4.90;;
4525;SDS011;2275;52.208;8.804;2022-08-04T06:01:24;7.33;;;4.17;;
4525;SDS011;2275;52.208;8.804;2022-08-04T06:03:52;6.23;;;4.07;;
4525;SDS011;2275;52.208;8.804;2022-08-04T06:06:19;10.23;;;4.70;;
4525;SDS011;2275;52.208;8.804;2022-08-04T06:08:47;10.23;;;4.33;;
4525;SDS011;2275;52.208;8.804;2022-08-04T06:11:14;11.00;;;4.10;;
4525;SDS011;2275;52.208;8.804;2022-08-04T06:13:43;12.23;;;4.00;;
4525;SDS011;2275;52.208;8.804;2022-08-04T06:16:10;11.00;;;3.80;;
4525;SDS011;2275;52.208;8.804;2022-08-04T06:18:36;6.17;;;3.90;;
4525;SDS011;2275;52.208;8.804;2022-08-04T06:21:04;11.13;;;4.40;;
4525;SDS011;2275;52.208;8.804;2022-08-04T06:23:31;9.10;;;4.20;;
4525;SDS011;2275;52.208;8.804;2022-08-04T06:25:58;10.13;;;3.93;;
4525;SDS011;2275;52.208;8.804;2022-08-04T06:28:26;9.03;;;4.50;;
4525;SDS011;2275;52.208;8.804;2022-08-04T06:30:53;5.13;;;3.70;;
4525;SDS011;2275;52.208;8.804;2022-08-04T06:33:22;6.33;;;4.10;;
4525;SDS011;2275;52.208;8.804;2022-08-04T06:35:50;12.13;;;4.17;;
4525;SDS011;2275;52.208;8.804;2022-08-04T06:38:16;11.43;;;4.10;;
4525;SDS011;2275;52.208;8.804;2022-08-04T06:40:44;9.63;;;3.93;;
4525;SDS011;2275;52.208;8.804;2022-08-04T06:43:11;11.27;;;3.60;;
4525;SDS011;2275;52.208;8.804;2022-08-04T06:45:38;9.57;;;3.70;;
4525;SDS011;2275;52.208;8.804;2022-08-04T06:48:05;11.17;;;4.53;;
4525;SDS011;2275;52.208;8.804;2022-08-04T06:50:33;8.57;;;4.17;;
4525;SDS011;2275;52.208;8.804;2022-08-04T06:53:02;9.50;;;3.83;;
4525;SDS011;2275;52.208;8.804;2022-08-04T06:55:34;8.80;;;3.90;;
4525;SDS011;2275;52.208;8.804;2022-08-04T06:58:01;16.73;;;4.20;;
4525;SDS011;2275;52.208;8.804;2022-08-04T07:00:29;9.83;;;3.40;;
4525;SDS011;2275;52.208;8.804;2022-08-04T07:02:56;10.03;;;4.03;;
4525;SDS011;2275;52.208;8.804;2022-08-04T07:05:23;7.97;;;4.07;;
4525;SDS011;2275;52.208;8.804;2022-08-04T07:07:50;11.23;;;4.20;;
4525;SDS011;2275;52.208;8.804;2022-08-04T07:12:59;10.03;;;4.50;;
4525;SDS011;2275;52.208;8.804;2022-08-04T07:15:26;11.37;;;4.17;;
4525;SDS011;2275;52.208;8.804;2022-08-04T07:17:55;11.00;;;3.97;;
4525;SDS011;2275;52.208;8.804;2022-08-04T07:20:26;11.30;;;4.07;;
4525;SDS011;2275;52.208;8.804;2022-08-04T07:22:53;6.70;;;3.80;;
4525;SDS011;2275;52.208;8.804;2022-08-04T07:25:21;13.20;;;4.50;;
4525;SDS011;2275;52.208;8.804;2022-08-04T07:27:48;7.80;;;3.90;;
4525;SDS011;2275;52.208;8.804;2022-08-04T07:30:15;8.37;;;4.20;;
4525;SDS011;2275;52.208;8.804;2022-08-04T07:32:43;15.33;;;5.43;;
4525;SDS011;2275;52.208;8.804;2022-08-04T07:35:10;10.70;;;3.77;;
4525;SDS011;2275;52.208;8.804;2022-08-04T07:37:37;9.07;;;4.27;;
4525;SDS011;2275;52.208;8.804;2022-08-04T07:40:04;7.47;;;4.03;;
4525;SDS011;2275;52.208;8.804;2022-08-04T07:42:32;9.40;;;4.37;;
4525;SDS011;2275;52.208;8.804;2022-08-04T07:45:00;6.40;;;3.40;;
4525;SDS011;2275;52.208;8.804;2022-08-04T07:47:26;7.37;;;3.70;;
4525;SDS011;2275;52.208;8.804;2022-08-04T07:49:53;10.70;;;3.80;;
4525;SDS011;2275;52.208;8.804;2022-08-04T07:52:21;6.80;;;3.33;;
4525;SDS011;2275;52.208;8.804;2022-08-04T07:54:49;8.40;;;4.17;;
4525;SDS011;2275;52.208;8.804;2022-08-04T07:57:16;7.83;;;3.93;;
4525;SDS011;2275;52.208;8.804;2022-08-04T07:59:43;13.80;;;4.00;;
4525;SDS011;2275;52.208;8.804;2022-08-04T08:02:10;6.90;;;3.83;;
4525;SDS011;2275;52.208;8.804;2022-08-04T08:04:37;7.43;;;3.87;;
4525;SDS011;2275;52.208;8.804;2022-08-04T08:07:05;7.90;;;4.00;;
4525;SDS011;2275;52.208;8.804;2022-08-04T08:09:32;11.23;;;4.13;;
4525;SDS011;2275;52.208;8.804;2022-08-04T08:12:00;8.60;;;4.00;;
4525;SDS011;2275;52.208;8.804;2022-08-04T08:14:26;6.27;;;3.50;;
4525;SDS011;2275;52.208;8.804;2022-08-04T08:16:53;7.23;;;3.60;;
4525;SDS011;2275;52.208;8.804;2022-08-04T08:19:20;15.63;;;4.30;;
4525;SDS011;2275;52.208;8.804;2022-08-04T08:21:47;8.90;;;3.73;;
4525;SDS011;2275;52.208;8.804;2022-08-04T08:24:15;7.23;;;3.70;;
4525;SDS011;2275;52.208;8.804;2022-08-04T08:26:41;7.77;;;3.87;;
4525;SDS011;2275;52.208;8.804;2022-08-04T08:29:08;8.00;;;4.07;;
4525;SDS011;2275;52.208;8.804;2022-08-04T08:31:36;7.10;;;4.30;;
4525;SDS011;2275;52.208;8.804;2022-08-04T08:34:03;13.83;;;4.60;;
4525;SDS011;2275;52.208;8.804;2022-08-04T08:36:33;6.03;;;3.63;;
4525;SDS011;2275;52.208;8.804;2022-08-04T08:39:05;7.17;;;4.10;;
4525;SDS011;2275;52.208;8.804;2022-08-04T08:46:59;6.20;;;3.70;;
4525;SDS011;2275;52.208;8.804;2022-08-04T08:50:02;7.87;;;3.80;;
4525;SDS011;2275;52.208;8.804;2022-08-04T08:52:20;10.40;;;3.83;;
4525;SDS011;2275;52.208;8.804;2022-08-04T08:55:00;7.83;;;4.30;;
4525;SDS011;2275;52.208;8.804;2022-08-04T08:57:33;6.60;;;3.50;;
4525;SDS011;2275;52.208;8.804;2022-08-04T09:00:19;7.47;;;3.57;;
4525;SDS011;2275;52.208;8.804;2022-08-04T09:05:23;7.20;;;3.23;;
4525;SDS011;2275;52.208;8.804;2022-08-04T09:07:56;8.93;;;4.57;;
4525;SDS011;2275;52.208;8.804;2022-08-04T09:10:44;6.97;;;3.67;;
4525;SDS011;2275;52.208;8.804;2022-08-04T09:13:15;9.60;;;4.10;;
4525;SDS011;2275;52.208;8.804;2022-08-04T09:15:46;8.53;;;4.13;;
4525;SDS011;2275;52.208;8.804;2022-08-04T09:20:55;4.83;;;4.33;;
4525;SDS011;2275;52.208;8.804;2022-08-04T09:23:33;9.57;;;3.80;;
4525;SDS011;2275;52.208;8.804;2022-08-04T09:26:35;6.30;;;4.37;;
4525;SDS011;2275;52.208;8.804;2022-08-04T09:28:48;4.60;;;3.90;;
4525;SDS011;2275;52.208;8.804;2022-08-04T09:31:18;5.63;;;3.67;;
4525;SDS011;2275;52.208;8.804;2022-08-04T09:33:47;7.40;;;4.37;;
4525;SDS011;2275;52.208;8.804;2022-08-04T09:36:19;13.03;;;3.93;;
4525;SDS011;2275;52.208;8.804;2022-08-04T09:38:53;5.93;;;3.87;;
4525;SDS011;2275;52.208;8.804;2022-08-04T09:41:28;4.70;;;3.93;;
4525;SDS011;2275;52.208;8.804;2022-08-04T09:43:55;5.17;;;4.17;;
4525;SDS011;2275;52.208;8.804;2022-08-04T09:46:22;7.70;;;3.77;;
4525;SDS011;2275;52.208;8.804;2022-08-04T09:51:35;4.60;;;4.00;;
4525;SDS011;2275;52.208;8.804;2022-08-04T09:54:11;5.30;;;3.80;;
4525;SDS011;2275;52.208;8.804;2022-08-04T09:56:37;11.50;;;3.93;;
4525;SDS011;2275;52.208;8.804;2022-08-04T10:01:41;7.27;;;3.50;;
4525;SDS011;2275;52.208;8.804;2022-08-04T10:04:09;7.03;;;3.90;;
4525;SDS011;2275;52.208;8.804;2022-08-04T10:09:20;8.00;;;3.20;;
4525;SDS011;2275;52.208;8.804;2022-08-04T10:12:02;4.30;;;3.47;;
4525;SDS011;2275;52.208;8.804;2022-08-04T10:18:00;4.73;;;4.33;;
4525;SDS011;2275;52.208;8.804;2022-08-04T10:20:34;4.80;;;4.10;;
4525;SDS011;2275;52.208;8.804;2022-08-04T10:25:58;4.07;;;3.40;;
4525;SDS011;2275;52.208;8.804;2022-08-04T10:28:23;4.80;;;3.50;;
4525;SDS011;2275;52.208;8.804;2022-08-04T10:30:54;8.47;;;3.63;;
4525;SDS011;2275;52.208;8.804;2022-08-04T10:33:30;3.97;;;3.00;;
4525;SDS011;2275;52.208;8.804;2022-08-04T10:36:00;3.67;;;3.30;;
4525;SDS011;2275;52.208;8.804;2022-08-04T10:38:32;7.70;;;3.40;;
4525;SDS011;2275;52.208;8.804;2022-08-04T10:41:01;5.40;;;3.27;;
4525;SDS011;2275;52.208;8.804;2022-08-04T10:46:16;5.70;;;3.57;;
4525;SDS011;2275;52.208;8.804;2022-08-04T10:48:48;6.23;;;3.40;;
4525;SDS011;2275;52.208;8.804;2022-08-04T10:51:23;5.30;;;3.47;;
4525;SDS011;2275;52.208;8.804;2022-08-04T10:54:01;6.30;;;3.17;;
4525;SDS011;2275;52.208;8.804;2022-08-04T10:56:31;3.53;;;3.23;;
4525;SDS011;2275;52.208;8.804;2022-08-04T10:58:59;3.90;;;2.77;;
4525;SDS011;2275;52.208;8.804;2022-08-04T11:01:28;4.67;;;3.17;;
4525;SDS011;2275;52.208;8.804;2022-08-04T11:03:55;3.93;;;2.70;;
4525;SDS011;2275;52.208;8.804;2022-08-04T11:06:21;3.43;;;2.80;;
4525;SDS011;2275;52.208;8.804;2022-08-04T11:11:43;3.50;;;3.17;;
4525;SDS011;2275;52.208;8.804;2022-08-04T11:14:11;4.20;;;2.80;;
4525;SDS011;2275;52.208;8.804;2022-08-04T11:16:43;4.20;;;2.87;;
4525;SDS011;2275;52.208;8.804;2022-08-04T11:19:16;5.30;;;2.80;;
4525;SDS011;2275;52.208;8.804;2022-08-04T11:21:50;4.73;;;2.70;;
4525;SDS011;2275;52.208;8.804;2022-08-04T11:27:19;3.70;;;3.40;;
4525;SDS011;2275;52.208;8.804;2022-08-04T11:29:49;3.50;;;3.20;;
4525;SDS011;2275;52.208;8.804;2022-08-04T11:32:19;11.93;;;3.80;;
4525;SDS011;2275;52.208;8.804;2022-08-04T11:34:47;5.10;;;3.47;;
4525;SDS011;2275;52.208;8.804;2022-08-04T11:37:16;3.40;;;3.10;;
4525;SDS011;2275;52.208;8.804;2022-08-04T11:39:44;3.93;;;2.90;;
4525;SDS011;2275;52.208;8.804;2022-08-04T11:42:26;5.47;;;3.03;;
4525;SDS011;2275;52.208;8.804;2022-08-04T11:44:58;3.73;;;3.37;;
4525;SDS011;2275;52.208;8.804;2022-08-04T11:47:29;6.33;;;3.27;;
4525;SDS011;2275;52.208;8.804;2022-08-04T11:50:17;6.87;;;3.17;;
4525;SDS011;2275;52.208;8.804;2022-08-04T11:52:56;5.13;;;3.10;;
4525;SDS011;2275;52.208;8.804;2022-08-04T11:55:24;4.70;;;2.87;;
4525;SDS011;2275;52.208;8.804;2022-08-04T11:57:50;5.03;;;3.50;;
4525;SDS011;2275;52.208;8.804;2022-08-04T12:00:18;6.13;;;3.53;;
4525;SDS011;2275;52.208;8.804;2022-08-04T12:02:49;3.10;;;2.80;;
4525;SDS011;2275;52.208;8.804;2022-08-04T12:05:31;4.70;;;3.43;;
4525;SDS011;2275;52.208;8.804;2022-08-04T12:08:10;4.70;;;3.03;;
4525;SDS011;2275;52.208;8.804;2022-08-04T12:10:35;5.20;;;3.13;;
4525;SDS011;2275;52.208;8.804;2022-08-04T12:13:21;5.67;;;3.33;;
4525;SDS011;2275;52.208;8.804;2022-08-04T12:16:09;4.20;;;3.10;;
4525;SDS011;2275;52.208;8.804;2022-08-04T12:18:38;6.13;;;3.20;;
4525;SDS011;2275;52.208;8.804;2022-08-04T12:21:06;3.30;;;2.87;;
4525;SDS011;2275;52.208;8.804;2022-08-04T12:23:39;5.50;;;3.10;;
4525;SDS011;2275;52.208;8.804;2022-08-04T12:26:08;4.23;;;3.50;;
4525;SDS011;2275;52.208;8.804;2022-08-04T12:28:37;8.30;;;3.07;;
4525;SDS011;2275;52.208;8.804;2022-08-04T12:31:07;7.97;;;3.97;;
4525;SDS011;2275;52.208;8.804;2022-08-04T12:33:34;5.60;;;2.90;;
4525;SDS011;2275;52.208;8.804;2022-08-04T12:36:14;5.33;;;3.50;;
4525;SDS011;2275;52.208;8.804;2022-08-04T12:38:30;5.13;;;2.93;;
4525;SDS011;2275;52.208;8.804;2022-08-04T12:40:55;4.80;;;2.90;;
4525;SDS011;2275;52.208;8.804;2022-08-04T12:43:26;6.60;;;2.90;;
4525;SDS011;2275;52.208;8.804;2022-08-04T12:45:56;5.30;;;3.20;;
4525;SDS011;2275;52.208;8.804;2022-08-04T12:48:22;3.57;;;3.10;;
4525;SDS011;2275;52.208;8.804;2022-08-04T12:50:53;9.17;;;3.07;;
4525;SDS011;2275;52.208;8.804;2022-08-04T12:53:19;10.27;;;3.20;;
4525;SDS011;2275;52.208;8.804;2022-08-04T12:55:47;4.03;;;2.73;;
4525;SDS011;2275;52.208;8.804;2022-08-04T12:58:16;4.83;;;3.57;;
4525;SDS011;2275;52.208;8.804;2022-08-04T13:00:52;5.80;;;3.23;;
4525;SDS011;2275;52.208;8.804;2022-08-04T13:03:26;4.57;;;3.23;;
4525;SDS011;2275;52.208;8.804;2022-08-04T13:05:52;3.20;;;2.90;;
4525;SDS011;2275;52.208;8.804;2022-08-04T13:08:19;11.90;;;3.13;;
4525;SDS011;2275;52.208;8.804;2022-08-04T13:10:50;5.73;;;2.60;;
4525;SDS011;2275;52.208;8.804;2022-08-04T13:13:24;2.93;;;2.60;;
4525;SDS011;2275;52.208;8.804;2022-08-04T13:15:53;4.77;;;2.73;;
4525;SDS011;2275;52.208;8.804;2022-08-04T13:18:21;9.93;;;2.60;;
4525;SDS011;2275;52.208;8.804;2022-08-04T13:20:48;5.67;;;2.57;;
4525;SDS011;2275;52.208;8.804;2022-08-04T13:23:17;6.97;;;2.73;;
4525;SDS011;2275;52.208;8.804;2022-08-04T13:25:45;5.87;;;2.23;;
4525;SDS011;2275;52.208;8.804;2022-08-04T13:28:13;3.40;;;2.47;;
4525;SDS011;2275;52.208;8.804;2022-08-04T13:30:42;7.73;;;2.80;;
4525;SDS011;2275;52.208;8.804;2022-08-04T13:33:08;6.87;;;2.60;;
4525;SDS011;2275;52.208;8.804;2022-08-04T13:35:35;3.50;;;2.47;;
4525;SDS011;2275;52.208;8.804;2022-08-04T13:38:02;5.23;;;2.93;;
4525;SDS011;2275;52.208;8.804;2022-08-04T13:40:29;5.80;;;2.40;;
4525;SDS011;2275;52.208;8.804;2022-08-04T13:42:56;3.57;;;2.50;;
4525;SDS011;2275;52.208;8.804;2022-08-04T13:45:23;4.17;;;2.30;;
4525;SDS011;2275;52.208;8.804;2022-08-04T13:47:50;3.60;;;2.80;;
4525;SDS011;2275;52.208;8.804;2022-08-04T13:50:20;3.63;;;2.63;;
4525;SDS011;2275;52.208;8.804;2022-08-04T13:52:49;4.77;;;2.40;;
4525;SDS011;2275;52.208;8.804;2022-08-04T13:55:25;3.30;;;2.30;;
4525;SDS011;2275;52.208;8.804;2022-08-04T13:57:56;3.93;;;2.60;;
4525;SDS011;2275;52.208;8.804;2022-08-04T14:00:22;3.70;;;2.40;;
4525;SDS011;2275;52.208;8.804;2022-08-04T14:02:51;8.33;;;3.67;;
4525;SDS011;2275;52.208;8.804;2022-08-04T14:05:22;4.90;;;3.63;;
4525;SDS011;2275;52.208;8.804;2022-08-04T14:07:54;3.73;;;3.00;;
4525;SDS011;2275;52.208;8.804;2022-08-04T14:10:20;5.33;;;3.17;;
4525;SDS011;2275;52.208;8.804;2022-08-04T14:12:48;3.77;;;3.40;;
4525;SDS011;2275;52.208;8.804;2022-08-04T14:17:53;4.87;;;3.30;;
4525;SDS011;2275;52.208;8.804;2022-08-04T14:20:20;5.77;;;2.90;;
4525;SDS011;2275;52.208;8.804;2022-08-04T14:22:48;5.07;;;3.07;;
4525;SDS011;2275;52.208;8.804;2022-08-04T14:28:00;6.03;;;3.30;;
4525;SDS011;2275;52.208;8.804;2022-08-04T14:30:29;11.00;;;3.50;;
4525;SDS011;2275;52.208;8.804;2022-08-04T14:33:02;4.17;;;2.97;;
4525;SDS011;2275;52.208;8.804;2022-08-04T14:35:28;6.90;;;2.93;;
4525;SDS011;2275;52.208;8.804;2022-08-04T14:37:57;4.10;;;2.80;;
4525;SDS011;2275;52.208;8.804;2022-08-04T14:40:25;4.93;;;3.27;;
4525;SDS011;2275;52.208;8.804;2022-08-04T14:42:52;8.40;;;3.63;;
4525;SDS011;2275;52.208;8.804;2022-08-04T14:45:27;4.00;;;3.33;;
4525;SDS011;2275;52.208;8.804;2022-08-04T14:47:57;11.20;;;3.80;;
4525;SDS011;2275;52.208;8.804;2022-08-04T14:53:03;17.77;;;4.23;;
4525;SDS011;2275;52.208;8.804;2022-08-04T14:55:29;14.73;;;4.63;;
4525;SDS011;2275;52.208;8.804;2022-08-04T14:57:57;13.30;;;4.20;;
4525;SDS011;2275;52.208;8.804;2022-08-04T15:00:27;8.87;;;4.50;;
4525;SDS011;2275;52.208;8.804;2022-08-04T15:02:56;17.03;;;4.30;;
4525;SDS011;2275;52.208;8.804;2022-08-04T15:05:24;9.00;;;3.90;;
4525;SDS011;2275;52.208;8.804;2022-08-04T15:07:51;6.17;;;4.00;;
4525;SDS011;2275;52.208;8.804;2022-08-04T15:10:19;12.10;;;4.50;;
4525;SDS011;2275;52.208;8.804;2022-08-04T15:12:45;8.93;;;4.17;;
4525;SDS011;2275;52.208;8.804;2022-08-04T15:15:12;11.47;;;4.83;;
4525;SDS011;2275;52.208;8.804;2022-08-04T15:17:39;7.23;;;4.10;;
4525;SDS011;2275;52.208;8.804;2022-08-04T15:20:07;12.27;;;4.10;;
4525;SDS011;2275;52.208;8.804;2022-08-04T15:22:35;10.40;;;4.37;;
4525;SDS011;2275;52.208;8.804;2022-08-04T15:25:02;7.13;;;3.60;;
4525;SDS011;2275;52.208;8.804;2022-08-04T15:27:30;5.90;;;3.60;;
4525;SDS011;2275;52.208;8.804;2022-08-04T15:29:58;12.47;;;4.10;;
4525;SDS011;2275;52.208;8.804;2022-08-04T15:32:25;7.03;;;3.50;;
4525;SDS011;2275;52.208;8.804;2022-08-04T15:34:53;13.70;;;4.80;;
4525;SDS011;2275;52.208;8.804;2022-08-04T15:39:55;7.20;;;4.17;;
4525;SDS011;2275;52.208;8.804;2022-08-04T15:47:33;4.60;;;3.73;;
4525;SDS011;2275;52.208;8.804;2022-08-04T15:58:29;7.80;;;3.07;;
4525;SDS011;2275;52.208;8.804;2022-08-04T16:01:13;8.60;;;3.60;;
4525;SDS011;2275;52.208;8.804;2022-08-04T16:03:42;5.33;;;3.00;;
4525;SDS011;2275;52.208;8.804;2022-08-04T16:09:20;4.73;;;3.00;;
4525;SDS011;2275;52.208;8.804;2022-08-04T16:11:48;5.50;;;3.40;;
4525;SDS011;2275;52.208;8.804;2022-08-04T16:14:28;6.63;;;3.10;;
4525;SDS011;2275;52.208;8.804;2022-08-04T16:16:46;6.27;;;3.13;;
4525;SDS011;2275;52.208;8.804;2022-08-04T16:19:35;4.07;;;3.40;;
4525;SDS011;2275;52.208;8.804;2022-08-04T16:22:37;11.70;;;3.50;;
4525;SDS011;2275;52.208;8.804;2022-08-04T16:25:04;4.43;;;3.70;;
4525;SDS011;2275;52.208;8.804;2022-08-04T16:27:34;6.97;;;2.90;;
4525;SDS011;2275;52.208;8.804;2022-08-04T16:30:04;6.47;;;2.90;;
4525;SDS011;2275;52.208;8.804;2022-08-04T16:32:38;4.20;;;3.00;;
4525;SDS011;2275;52.208;8.804;2022-08-04T16:35:03;7.03;;;3.03;;
4525;SDS011;2275;52.208;8.804;2022-08-04T16:37:37;5.37;;;3.13;;
4525;SDS011;2275;52.208;8.804;2022-08-04T16:42:57;7.10;;;4.67;;
4525;SDS011;2275;52.208;8.804;2022-08-04T16:45:37;4.80;;;3.20;;
4525;SDS011;2275;52.208;8.804;2022-08-04T16:47:59;6.20;;;3.20;;
4525;SDS011;2275;52.208;8.804;2022-08-04T16:50:26;4.13;;;3.50;;
4525;SDS011;2275;52.208;8.804;2022-08-04T16:52:53;5.30;;;3.40;;
4525;SDS011;2275;52.208;8.804;2022-08-04T16:55:22;4.43;;;2.80;;
4525;SDS011;2275;52.208;8.804;2022-08-04T16:57:50;6.80;;;3.67;;
4525;SDS011;2275;52.208;8.804;2022-08-04T17:00:17;8.63;;;3.60;;
4525;SDS011;2275;52.208;8.804;2022-08-04T17:05:30;4.43;;;2.73;;
4525;SDS011;2275;52.208;8.804;2022-08-04T17:07:58;7.57;;;4.00;;
4525;SDS011;2275;52.208;8.804;2022-08-04T17:12:57;3.97;;;2.63;;
4525;SDS011;2275;52.208;8.804;2022-08-04T17:15:24;5.30;;;3.33;;
4525;SDS011;2275;52.208;8.804;2022-08-04T17:17:51;5.30;;;3.37;;
4525;SDS011;2275;52.208;8.804;2022-08-04T17:20:24;8.90;;;3.07;;
4525;SDS011;2275;52.208;8.804;2022-08-04T17:22:46;5.03;;;2.90;;
4525;SDS011;2275;52.208;8.804;2022-08-04T17:25:13;4.50;;;3.23;;
4525;SDS011;2275;52.208;8.804;2022-08-04T17:27:41;5.87;;;3.37;;
4525;SDS011;2275;52.208;8.804;2022-08-04T17:30:24;6.13;;;3.53;;
4525;SDS011;2275;52.208;8.804;2022-08-04T17:32:50;8.80;;;3.20;;
4525;SDS011;2275;52.208;8.804;2022-08-04T17:35:20;4.37;;;2.77;;
4525;SDS011;2275;52.208;8.804;2022-08-04T17:37:48;4.03;;;2.70;;
4525;SDS011;2275;52.208;8.804;2022-08-04T17:40:17;8.70;;;3.90;;
4525;SDS011;2275;52.208;8.804;2022-08-04T17:42:49;4.80;;;3.50;;
4525;SDS011;2275;52.208;8.804;2022-08-04T17:45:20;5.33;;;3.10;;
4525;SDS011;2275;52.208;8.804;2022-08-04T17:47:50;8.10;;;3.47;;